createdAt,value
2018-12-31T00:02:10.603Z,6.30
2018-12-31T00:07:03.407Z,6.30
2018-12-31T00:11:55.490Z,6.30
2018-12-31T00:16:47.876Z,6.40
2018-12-31T00:21:40.398Z,6.40
2018-12-31T00:26:32.344Z,6.40
2018-12-31T00:31:24.984Z,6.40
2018-12-31T00:36:18.323Z,6.40
2018-12-31T00:41:10.921Z,6.40
2018-12-31T00:46:03.103Z,6.40
2018-12-31T00:50:55.293Z,6.50
2018-12-31T00:55:47.750Z,6.50
2018-12-31T01:00:40.205Z,6.50
2018-12-31T01:05:32.418Z,6.50
2018-12-31T01:10:24.878Z,6.50
2018-12-31T01:15:17.323Z,6.60
2018-12-31T01:20:09.553Z,6.50
2018-12-31T01:25:02.043Z,6.60
2018-12-31T01:29:54.293Z,6.60
2018-12-31T01:34:46.641Z,6.60
2018-12-31T01:39:38.890Z,6.60
2018-12-31T01:44:31.049Z,6.60
2018-12-31T01:49:23.457Z,6.60
2018-12-31T01:54:15.859Z,6.60
2018-12-31T01:59:08.055Z,6.60
2018-12-31T02:04:00.066Z,6.60
2018-12-31T02:08:52.510Z,6.60
2018-12-31T02:13:44.903Z,6.60
2018-12-31T02:18:37.061Z,6.60
2018-12-31T02:23:29.564Z,6.60
2018-12-31T02:28:22.067Z,6.60
2018-12-31T02:33:14.415Z,6.60
2018-12-31T02:38:06.557Z,6.60
2018-12-31T02:42:58.845Z,6.60
2018-12-31T02:47:51.154Z,6.60
2018-12-31T02:52:43.506Z,6.60
2018-12-31T02:57:36.022Z,6.60
2018-12-31T03:02:28.181Z,6.60
2018-12-31T03:07:20.461Z,6.60
2018-12-31T03:12:12.754Z,6.70
2018-12-31T03:17:05.080Z,6.60
2018-12-31T03:21:57.084Z,6.70
2018-12-31T03:26:49.298Z,6.70
2018-12-31T03:31:41.678Z,6.70
2018-12-31T03:36:33.861Z,6.70
2018-12-31T03:41:26.254Z,6.70
2018-12-31T03:46:18.735Z,6.70
2018-12-31T03:51:10.903Z,6.70
2018-12-31T03:56:03.370Z,6.70
2018-12-31T04:00:55.839Z,6.80
2018-12-31T04:05:47.983Z,6.80
2018-12-31T04:10:40.458Z,6.80
2018-12-31T04:15:32.645Z,6.80
2018-12-31T04:20:24.749Z,6.80
2018-12-31T04:25:16.872Z,6.80
2018-12-31T04:30:09.365Z,6.80
2018-12-31T04:35:01.661Z,6.80
2018-12-31T04:39:54.079Z,6.80
2018-12-31T04:44:46.537Z,6.80
2018-12-31T04:49:38.680Z,6.80
2018-12-31T04:54:31.221Z,6.80
2018-12-31T04:59:23.719Z,6.80
2018-12-31T05:04:15.834Z,6.80
2018-12-31T05:09:08.253Z,6.80
2018-12-31T05:14:00.612Z,6.80
2018-12-31T05:18:52.716Z,6.80
2018-12-31T05:23:45.203Z,6.80
2018-12-31T05:28:37.654Z,6.80
2018-12-31T05:33:30.654Z,6.80
2018-12-31T05:38:23.160Z,6.80
2018-12-31T05:43:15.673Z,6.80
2018-12-31T05:48:07.822Z,6.80
2018-12-31T05:52:59.863Z,6.80
2018-12-31T05:57:52.136Z,6.80
2018-12-31T06:02:44.917Z,6.80
2018-12-31T06:07:37.420Z,6.80
2018-12-31T06:12:29.593Z,6.80
2018-12-31T06:17:22.054Z,6.80
2018-12-31T06:22:14.413Z,6.80
2018-12-31T06:27:06.420Z,6.80
2018-12-31T06:31:58.550Z,6.80
2018-12-31T06:36:50.903Z,6.70
2018-12-31T06:41:42.880Z,6.70
2018-12-31T06:46:35.236Z,6.70
2018-12-31T06:51:27.491Z,6.70
2018-12-31T06:56:19.711Z,6.70
2018-12-31T07:01:12.166Z,6.70
2018-12-31T07:06:04.729Z,6.70
2018-12-31T07:10:56.959Z,6.70
2018-12-31T07:15:49.274Z,6.70
2018-12-31T07:20:41.887Z,6.70
2018-12-31T07:25:34.409Z,6.70
2018-12-31T07:30:26.405Z,6.70
2018-12-31T07:35:18.488Z,6.70
2018-12-31T07:40:10.705Z,6.80
2018-12-31T07:45:03.082Z,6.80
2018-12-31T07:49:55.501Z,6.80
2018-12-31T07:54:47.683Z,6.80
2018-12-31T07:59:40.046Z,6.80
2018-12-31T08:04:32.209Z,6.80
2018-12-31T08:09:24.538Z,6.90
2018-12-31T08:14:16.567Z,6.90
2018-12-31T08:19:08.641Z,6.90
2018-12-31T08:24:01.014Z,7.00
2018-12-31T08:28:53.389Z,7.00
2018-12-31T08:33:45.708Z,7.00
2018-12-31T08:38:38.239Z,7.00
2018-12-31T08:43:30.781Z,7.00
2018-12-31T08:48:23.237Z,7.00
2018-12-31T08:53:15.561Z,7.00
2018-12-31T08:58:07.660Z,7.10
2018-12-31T09:03:00.009Z,7.10
2018-12-31T09:07:52.125Z,7.20
2018-12-31T09:12:44.678Z,7.30
2018-12-31T09:17:37.033Z,7.30
2018-12-31T09:22:29.289Z,7.40
2018-12-31T09:27:21.445Z,7.40
2018-12-31T09:32:13.876Z,7.50
2018-12-31T09:37:06.522Z,7.50
2018-12-31T09:41:58.321Z,7.60
2018-12-31T09:46:51.658Z,7.70
2018-12-31T09:51:44.101Z,7.70
2018-12-31T09:56:36.568Z,7.70
2018-12-31T10:01:28.685Z,7.80
2018-12-31T10:06:20.961Z,7.90
2018-12-31T10:11:12.898Z,8.00
2018-12-31T10:16:05.097Z,8.10
2018-12-31T10:20:57.393Z,8.10
2018-12-31T10:25:49.489Z,8.20
2018-12-31T10:30:41.681Z,8.30
2018-12-31T10:35:33.766Z,8.30
2018-12-31T10:40:25.854Z,8.30
2018-12-31T10:45:18.170Z,8.30
2018-12-31T10:50:10.405Z,8.40
2018-12-31T10:55:02.449Z,8.50
2018-12-31T10:59:55.853Z,8.60
2018-12-31T11:04:48.693Z,8.60
2018-12-31T11:09:40.797Z,8.70
2018-12-31T11:14:33.128Z,8.70
2018-12-31T11:19:25.441Z,8.70
2018-12-31T11:24:17.665Z,8.70
2018-12-31T11:29:09.733Z,8.80
2018-12-31T11:34:02.034Z,8.90
2018-12-31T11:38:54.198Z,9.00
2018-12-31T11:43:46.234Z,9.10
2018-12-31T11:48:38.370Z,9.30
2018-12-31T11:53:30.826Z,9.40
2018-12-31T11:58:23.379Z,9.50
2018-12-31T12:03:15.484Z,9.50
2018-12-31T12:08:07.840Z,9.50
2018-12-31T12:12:59.931Z,9.50
2018-12-31T12:17:52.212Z,9.40
2018-12-31T12:22:44.393Z,9.40
2018-12-31T12:27:36.818Z,9.40
2018-12-31T12:32:28.964Z,9.30
2018-12-31T12:37:21.450Z,9.30
2018-12-31T12:42:13.944Z,9.20
2018-12-31T12:47:08.267Z,9.10
2018-12-31T12:52:00.153Z,9.00
2018-12-31T12:56:52.339Z,9.00
2018-12-31T13:01:44.738Z,8.90
2018-12-31T13:06:37.018Z,8.90
2018-12-31T13:11:29.253Z,9.00
2018-12-31T13:16:21.653Z,9.00
2018-12-31T13:21:13.732Z,9.10
2018-12-31T13:26:05.932Z,9.20
2018-12-31T13:30:59.145Z,9.50
2018-12-31T13:35:51.823Z,9.90
2018-12-31T13:40:43.943Z,10.00
2018-12-31T13:45:36.063Z,10.10
2018-12-31T13:50:28.641Z,10.20
2018-12-31T13:55:20.673Z,10.20
2018-12-31T14:00:12.758Z,10.20
2018-12-31T14:05:05.340Z,10.10
2018-12-31T14:09:57.494Z,10.10
2018-12-31T14:14:49.635Z,10.00
2018-12-31T14:19:42.086Z,9.90
2018-12-31T14:24:34.285Z,9.80
2018-12-31T14:29:26.732Z,9.70
2018-12-31T14:34:18.811Z,9.50
2018-12-31T14:39:11.093Z,9.40
2018-12-31T14:44:03.582Z,9.30
2018-12-31T14:48:55.827Z,9.20
2018-12-31T14:53:48.651Z,9.20
2018-12-31T14:58:41.198Z,9.20
2018-12-31T15:03:33.374Z,9.20
2018-12-31T15:08:25.686Z,9.10
2018-12-31T15:13:17.897Z,9.10
2018-12-31T15:18:10.243Z,9.00
2018-12-31T15:23:02.660Z,8.90
2018-12-31T15:27:55.017Z,8.90
2018-12-31T15:32:47.359Z,8.80
2018-12-31T15:37:39.766Z,8.70
2018-12-31T15:42:32.087Z,8.70
2018-12-31T15:47:24.727Z,8.60
2018-12-31T15:52:17.047Z,8.60
2018-12-31T15:57:09.585Z,8.50
2018-12-31T16:02:01.649Z,8.40
2018-12-31T16:06:53.905Z,8.40
2018-12-31T16:11:46.436Z,8.40
2018-12-31T16:16:38.347Z,8.30
2018-12-31T16:21:30.828Z,8.20
2018-12-31T16:26:22.978Z,8.10
2018-12-31T16:31:15.100Z,8.10
2018-12-31T16:36:07.157Z,8.00
2018-12-31T16:40:59.645Z,7.90
2018-12-31T16:45:51.700Z,7.80
2018-12-31T16:50:43.887Z,7.70
2018-12-31T16:55:36.353Z,7.60
2018-12-31T17:00:28.654Z,7.50
2018-12-31T17:05:21.146Z,7.50
2018-12-31T17:10:13.337Z,7.50
2018-12-31T17:15:06.363Z,7.50
2018-12-31T17:19:58.432Z,7.50
2018-12-31T17:24:50.869Z,7.50
2018-12-31T17:29:43.716Z,7.50
2018-12-31T17:34:35.865Z,7.40
2018-12-31T17:39:28.186Z,7.30
2018-12-31T17:44:20.405Z,7.30
2018-12-31T17:49:12.907Z,7.40
2018-12-31T17:54:05.053Z,7.30
2018-12-31T17:58:57.378Z,7.30
2018-12-31T18:03:49.966Z,7.30
2018-12-31T18:08:44.871Z,7.30
2018-12-31T18:13:37.324Z,7.30
2018-12-31T18:18:29.621Z,7.20
2018-12-31T18:23:22.294Z,7.20
2018-12-31T18:28:14.318Z,7.20
2018-12-31T18:33:06.737Z,7.20
2018-12-31T18:37:58.951Z,7.20
2018-12-31T18:42:51.112Z,7.20
2018-12-31T18:47:43.612Z,7.20
2018-12-31T18:52:36.021Z,7.20
2018-12-31T18:57:28.509Z,7.10
2018-12-31T19:02:20.490Z,7.10
2018-12-31T19:07:12.893Z,7.10
2018-12-31T19:12:05.413Z,7.10
2018-12-31T19:16:57.772Z,7.10
2018-12-31T19:21:50.225Z,7.10
2018-12-31T19:26:42.653Z,7.10
2018-12-31T19:31:34.709Z,7.10
2018-12-31T19:36:27.588Z,7.10
2018-12-31T19:41:19.666Z,7.10
2018-12-31T19:46:11.766Z,7.10
2018-12-31T19:51:03.973Z,7.00
2018-12-31T19:55:56.401Z,7.10
2018-12-31T20:00:48.509Z,7.10
2018-12-31T20:05:41.041Z,7.00
2018-12-31T20:10:34.562Z,7.00
2018-12-31T20:15:26.699Z,7.00
2018-12-31T20:20:19.262Z,7.00
2018-12-31T20:25:11.517Z,7.00
2018-12-31T20:30:04.477Z,6.90
2018-12-31T20:34:56.625Z,6.90
2018-12-31T20:39:49.189Z,6.90
2018-12-31T20:44:41.630Z,7.00
2018-12-31T20:49:33.969Z,7.00
2018-12-31T20:54:26.438Z,6.90
2018-12-31T20:59:19.049Z,6.90
2018-12-31T21:04:11.497Z,6.90
2018-12-31T21:09:04.589Z,6.80
2018-12-31T21:13:57.153Z,6.80
2018-12-31T21:18:49.169Z,6.80
2018-12-31T21:23:41.642Z,6.80
2018-12-31T21:28:33.889Z,6.80
2018-12-31T21:33:26.118Z,6.70
2018-12-31T21:38:18.491Z,6.80
2018-12-31T21:43:10.725Z,6.80
2018-12-31T21:48:02.916Z,6.80
2018-12-31T21:52:55.356Z,6.80
2018-12-31T21:57:47.817Z,6.70
2018-12-31T22:02:40.245Z,6.70
2018-12-31T22:07:32.805Z,6.70
2018-12-31T22:12:25.081Z,6.70
2018-12-31T22:17:17.328Z,6.70
2018-12-31T22:22:09.793Z,6.70
2018-12-31T22:27:01.923Z,6.70
2018-12-31T22:31:54.303Z,6.70
2018-12-31T22:36:47.214Z,6.70
2018-12-31T22:41:39.462Z,6.70
2018-12-31T22:46:31.740Z,6.70
2018-12-31T22:51:23.914Z,6.70
2018-12-31T22:56:16.140Z,6.70
2018-12-31T23:01:08.709Z,6.70
2018-12-31T23:06:00.862Z,6.70
2018-12-31T23:10:53.070Z,6.70
2018-12-31T23:15:47.343Z,6.70
2018-12-31T23:20:39.467Z,6.70
2018-12-31T23:25:31.802Z,6.70
2018-12-31T23:30:24.053Z,6.70
2018-12-31T23:35:16.488Z,6.70
2018-12-31T23:40:09.865Z,6.70
2018-12-31T23:45:01.957Z,6.70
2018-12-31T23:49:54.545Z,6.70
2018-12-31T23:54:47.341Z,6.70
2018-12-31T23:59:39.573Z,6.80
